sensor_id;sensor_type;location;lat;lon;timestamp;temperature;humidity
33645;DHT22;19986;48.190;16.366;2023-04-03T00:01:12;9.20;99.90
33645;DHT22;19986;48.190;16.366;2023-04-03T00:03:39;9.10;99.90
33645;DHT22;19986;48.190;16.366;2023-04-03T00:06:07;9.10;99.90
33645;DHT22;19986;48.190;16.366;2023-04-03T00:08:35;9.20;99.90
33645;DHT22;19986;48.190;16.366;2023-04-03T00:11:01;9.20;99.90
33645;DHT22;19986;48.190;16.366;2023-04-03T00:13:27;9.20;99.90
33645;DHT22;19986;48.190;16.366;2023-04-03T00:15:53;9.20;99.90
33645;DHT22;19986;48.190;16.366;2023-04-03T00:18:19;9.10;99.90
33645;DHT22;19986;48.190;16.366;2023-04-03T00:20:45;9.10;99.90
33645;DHT22;19986;48.190;16.366;2023-04-03T00:23:11;9.10;99.90
33645;DHT22;19986;48.190;16.366;2023-04-03T00:25:37;9.10;99.90
33645;DHT22;19986;48.190;16.366;2023-04-03T00:28:04;9.10;99.90
33645;DHT22;19986;48.190;16.366;2023-04-03T00:30:30;9.10;99.90
33645;DHT22;19986;48.190;16.366;2023-04-03T00:32:57;9.10;99.90
33645;DHT22;19986;48.190;16.366;2023-04-03T00:35:23;9.20;99.90
33645;DHT22;19986;48.190;16.366;2023-04-03T00:37:53;9.20;99.90
33645;DHT22;19986;48.190;16.366;2023-04-03T00:40:21;9.10;99.90
33645;DHT22;19986;48.190;16.366;2023-04-03T00:42:51;9.10;99.90
33645;DHT22;19986;48.190;16.366;2023-04-03T00:47:43;9.00;99.90
33645;DHT22;19986;48.190;16.366;2023-04-03T00:50:10;9.10;99.90
33645;DHT22;19986;48.190;16.366;2023-04-03T00:52:37;9.00;99.90
33645;DHT22;19986;48.190;16.366;2023-04-03T00:55:06;9.00;99.90
33645;DHT22;19986;48.190;16.366;2023-04-03T00:57:33;9.00;99.90
33645;DHT22;19986;48.190;16.366;2023-04-03T01:00:07;8.90;99.90
33645;DHT22;19986;48.190;16.366;2023-04-03T01:02:34;9.00;99.90
33645;DHT22;19986;48.190;16.366;2023-04-03T01:05:00;9.00;99.90
33645;DHT22;19986;48.190;16.366;2023-04-03T01:07:29;9.00;99.90
33645;DHT22;19986;48.190;16.366;2023-04-03T01:10:01;9.10;99.90
33645;DHT22;19986;48.190;16.366;2023-04-03T01:12:31;9.10;99.90
33645;DHT22;19986;48.190;16.366;2023-04-03T01:15:04;9.10;99.90
33645;DHT22;19986;48.190;16.366;2023-04-03T01:17:37;9.10;99.90
33645;DHT22;19986;48.190;16.366;2023-04-03T01:25:23;9.10;99.90
33645;DHT22;19986;48.190;16.366;2023-04-03T01:27:49;9.10;99.90
33645;DHT22;19986;48.190;16.366;2023-04-03T01:30:18;9.00;99.90
33645;DHT22;19986;48.190;16.366;2023-04-03T01:32:44;9.00;99.90
33645;DHT22;19986;48.190;16.366;2023-04-03T01:35:11;9.00;99.90
33645;DHT22;19986;48.190;16.366;2023-04-03T01:37:37;9.10;99.90
33645;DHT22;19986;48.190;16.366;2023-04-03T01:40:04;9.10;99.90
33645;DHT22;19986;48.190;16.366;2023-04-03T01:42:31;9.10;99.90
33645;DHT22;19986;48.190;16.366;2023-04-03T01:44:58;9.10;99.90
33645;DHT22;19986;48.190;16.366;2023-04-03T01:47:24;9.00;99.90
33645;DHT22;19986;48.190;16.366;2023-04-03T01:49:50;9.00;99.90
33645;DHT22;19986;48.190;16.366;2023-04-03T01:52:16;8.90;99.90
33645;DHT22;19986;48.190;16.366;2023-04-03T01:54:42;8.80;99.90
33645;DHT22;19986;48.190;16.366;2023-04-03T01:57:08;8.80;99.90
33645;DHT22;19986;48.190;16.366;2023-04-03T01:59:35;8.80;99.90
33645;DHT22;19986;48.190;16.366;2023-04-03T02:02:00;8.80;99.90
33645;DHT22;19986;48.190;16.366;2023-04-03T02:04:27;8.80;99.90
33645;DHT22;19986;48.190;16.366;2023-04-03T02:06:54;8.80;99.90
33645;DHT22;19986;48.190;16.366;2023-04-03T02:09:20;8.70;99.90
33645;DHT22;19986;48.190;16.366;2023-04-03T02:11:46;8.60;99.90
33645;DHT22;19986;48.190;16.366;2023-04-03T02:14:12;8.60;99.90
33645;DHT22;19986;48.190;16.366;2023-04-03T02:16:39;8.70;99.90
33645;DHT22;19986;48.190;16.366;2023-04-03T02:19:06;8.70;99.90
33645;DHT22;19986;48.190;16.366;2023-04-03T02:21:32;8.60;99.90
33645;DHT22;19986;48.190;16.366;2023-04-03T02:23:59;8.60;99.90
33645;DHT22;19986;48.190;16.366;2023-04-03T02:26:25;8.60;99.90
33645;DHT22;19986;48.190;16.366;2023-04-03T02:28:52;8.70;99.90
33645;DHT22;19986;48.190;16.366;2023-04-03T02:31:18;8.70;99.90
33645;DHT22;19986;48.190;16.366;2023-04-03T02:33:46;8.70;99.90
33645;DHT22;19986;48.190;16.366;2023-04-03T02:36:13;8.70;99.90
33645;DHT22;19986;48.190;16.366;2023-04-03T02:38:38;8.70;99.90
33645;DHT22;19986;48.190;16.366;2023-04-03T02:41:10;8.60;99.90
33645;DHT22;19986;48.190;16.366;2023-04-03T02:43:37;8.50;99.90
33645;DHT22;19986;48.190;16.366;2023-04-03T02:46:03;8.50;99.90
33645;DHT22;19986;48.190;16.366;2023-04-03T02:48:29;8.50;99.90
33645;DHT22;19986;48.190;16.366;2023-04-03T02:50:55;8.50;99.90
33645;DHT22;19986;48.190;16.366;2023-04-03T02:53:21;8.50;99.90
33645;DHT22;19986;48.190;16.366;2023-04-03T02:55:48;8.50;99.90
33645;DHT22;19986;48.190;16.366;2023-04-03T02:58:14;8.50;99.90
33645;DHT22;19986;48.190;16.366;2023-04-03T03:00:40;8.50;99.90
33645;DHT22;19986;48.190;16.366;2023-04-03T03:03:06;8.50;99.90
33645;DHT22;19986;48.190;16.366;2023-04-03T03:05:33;8.60;99.90
33645;DHT22;19986;48.190;16.366;2023-04-03T03:07:58;8.60;99.90
33645;DHT22;19986;48.190;16.366;2023-04-03T03:10:24;8.60;99.90
33645;DHT22;19986;48.190;16.366;2023-04-03T03:12:50;8.50;99.90
33645;DHT22;19986;48.190;16.366;2023-04-03T03:15:16;8.50;99.90
33645;DHT22;19986;48.190;16.366;2023-04-03T03:17:43;8.50;99.90
33645;DHT22;19986;48.190;16.366;2023-04-03T03:20:09;8.40;99.90
33645;DHT22;19986;48.190;16.366;2023-04-03T03:22:35;8.30;99.90
33645;DHT22;19986;48.190;16.366;2023-04-03T03:25:02;8.30;99.90
33645;DHT22;19986;48.190;16.366;2023-04-03T03:27:28;8.40;99.90
33645;DHT22;19986;48.190;16.366;2023-04-03T03:29:55;8.40;99.90
33645;DHT22;19986;48.190;16.366;2023-04-03T03:32:21;8.40;99.90
33645;DHT22;19986;48.190;16.366;2023-04-03T03:34:46;8.40;99.90
33645;DHT22;19986;48.190;16.366;2023-04-03T03:37:12;8.30;99.90
33645;DHT22;19986;48.190;16.366;2023-04-03T03:39:38;8.30;99.90
33645;DHT22;19986;48.190;16.366;2023-04-03T03:42:04;8.20;99.90
33645;DHT22;19986;48.190;16.366;2023-04-03T03:44:30;8.30;99.90
33645;DHT22;19986;48.190;16.366;2023-04-03T03:46:56;8.30;99.90
33645;DHT22;19986;48.190;16.366;2023-04-03T03:49:22;8.30;99.90
33645;DHT22;19986;48.190;16.366;2023-04-03T03:51:48;8.20;99.90
33645;DHT22;19986;48.190;16.366;2023-04-03T03:54:14;8.30;99.90
33645;DHT22;19986;48.190;16.366;2023-04-03T03:56:39;8.30;99.90
33645;DHT22;19986;48.190;16.366;2023-04-03T03:59:05;8.30;99.90
33645;DHT22;19986;48.190;16.366;2023-04-03T04:01:32;8.30;99.90
33645;DHT22;19986;48.190;16.366;2023-04-03T04:03:58;8.30;99.90
33645;DHT22;19986;48.190;16.366;2023-04-03T04:06:24;8.20;99.90
33645;DHT22;19986;48.190;16.366;2023-04-03T04:08:49;8.20;99.90
33645;DHT22;19986;48.190;16.366;2023-04-03T04:11:15;8.20;99.90
33645;DHT22;19986;48.190;16.366;2023-04-03T04:13:41;8.30;99.90
33645;DHT22;19986;48.190;16.366;2023-04-03T04:16:07;8.20;99.90
33645;DHT22;19986;48.190;16.366;2023-04-03T04:18:33;8.30;99.90
33645;DHT22;19986;48.190;16.366;2023-04-03T04:20:59;8.20;99.90
33645;DHT22;19986;48.190;16.366;2023-04-03T04:23:25;8.20;99.90
33645;DHT22;19986;48.190;16.366;2023-04-03T04:25:51;8.20;99.90
33645;DHT22;19986;48.190;16.366;2023-04-03T04:28:18;8.30;99.90
33645;DHT22;19986;48.190;16.366;2023-04-03T04:30:45;8.20;99.90
33645;DHT22;19986;48.190;16.366;2023-04-03T04:33:10;8.10;99.90
33645;DHT22;19986;48.190;16.366;2023-04-03T04:35:36;8.20;99.90
33645;DHT22;19986;48.190;16.366;2023-04-03T04:38:03;8.10;99.90
33645;DHT22;19986;48.190;16.366;2023-04-03T04:40:29;8.10;99.90
33645;DHT22;19986;48.190;16.366;2023-04-03T04:42:55;8.10;99.90
33645;DHT22;19986;48.190;16.366;2023-04-03T04:45:21;8.10;99.90
33645;DHT22;19986;48.190;16.366;2023-04-03T04:47:47;8.00;99.90
33645;DHT22;19986;48.190;16.366;2023-04-03T04:50:12;8.00;99.90
33645;DHT22;19986;48.190;16.366;2023-04-03T04:52:38;8.00;99.90
33645;DHT22;19986;48.190;16.366;2023-04-03T04:55:05;8.00;99.90
33645;DHT22;19986;48.190;16.366;2023-04-03T04:57:31;8.10;99.90
33645;DHT22;19986;48.190;16.366;2023-04-03T04:59:57;8.10;99.90
33645;DHT22;19986;48.190;16.366;2023-04-03T05:02:23;8.10;99.90
33645;DHT22;19986;48.190;16.366;2023-04-03T05:04:49;8.10;99.90
33645;DHT22;19986;48.190;16.366;2023-04-03T05:07:16;8.10;99.90
33645;DHT22;19986;48.190;16.366;2023-04-03T05:09:41;8.00;99.90
33645;DHT22;19986;48.190;16.366;2023-04-03T05:12:08;8.00;99.90
33645;DHT22;19986;48.190;16.366;2023-04-03T05:14:34;8.00;99.90
33645;DHT22;19986;48.190;16.366;2023-04-03T05:17:00;8.10;99.90
33645;DHT22;19986;48.190;16.366;2023-04-03T05:19:25;8.30;99.90
33645;DHT22;19986;48.190;16.366;2023-04-03T05:21:51;8.30;99.90
33645;DHT22;19986;48.190;16.366;2023-04-03T05:24:17;8.30;99.90
33645;DHT22;19986;48.190;16.366;2023-04-03T05:26:44;8.30;99.90
33645;DHT22;19986;48.190;16.366;2023-04-03T05:29:10;8.20;99.90
33645;DHT22;19986;48.190;16.366;2023-04-03T05:31:36;8.20;99.90
33645;DHT22;19986;48.190;16.366;2023-04-03T05:34:02;8.10;99.90
33645;DHT22;19986;48.190;16.366;2023-04-03T05:36:28;8.10;99.90
33645;DHT22;19986;48.190;16.366;2023-04-03T05:38:54;8.10;99.90
33645;DHT22;19986;48.190;16.366;2023-04-03T05:41:22;8.00;99.90
33645;DHT22;19986;48.190;16.366;2023-04-03T05:43:48;8.00;99.90
33645;DHT22;19986;48.190;16.366;2023-04-03T05:46:16;8.20;99.90
33645;DHT22;19986;48.190;16.366;2023-04-03T05:48:43;8.10;99.90
33645;DHT22;19986;48.190;16.366;2023-04-03T05:51:16;8.10;99.90
33645;DHT22;19986;48.190;16.366;2023-04-03T05:53:42;8.20;99.90
33645;DHT22;19986;48.190;16.366;2023-04-03T05:56:09;8.10;99.90
33645;DHT22;19986;48.190;16.366;2023-04-03T05:58:35;8.10;99.90
33645;DHT22;19986;48.190;16.366;2023-04-03T06:01:01;8.10;99.90
33645;DHT22;19986;48.190;16.366;2023-04-03T06:03:27;8.20;99.90
33645;DHT22;19986;48.190;16.366;2023-04-03T06:05:53;8.30;99.90
33645;DHT22;19986;48.190;16.366;2023-04-03T06:08:19;8.30;99.90
33645;DHT22;19986;48.190;16.366;2023-04-03T06:10:45;8.30;99.90
33645;DHT22;19986;48.190;16.366;2023-04-03T06:13:12;8.30;99.90
33645;DHT22;19986;48.190;16.366;2023-04-03T06:15:38;8.30;99.90
33645;DHT22;19986;48.190;16.366;2023-04-03T06:18:05;8.40;99.90
33645;DHT22;19986;48.190;16.366;2023-04-03T06:20:31;8.40;99.90
33645;DHT22;19986;48.190;16.366;2023-04-03T06:22:57;8.40;99.90
33645;DHT22;19986;48.190;16.366;2023-04-03T06:25:23;8.50;99.90
33645;DHT22;19986;48.190;16.366;2023-04-03T06:27:49;8.50;99.90
33645;DHT22;19986;48.190;16.366;2023-04-03T06:30:14;8.60;99.90
33645;DHT22;19986;48.190;16.366;2023-04-03T06:32:40;8.60;99.90
33645;DHT22;19986;48.190;16.366;2023-04-03T06:35:07;8.50;99.90
33645;DHT22;19986;48.190;16.366;2023-04-03T06:37:33;8.40;99.90
33645;DHT22;19986;48.190;16.366;2023-04-03T06:39:59;8.40;99.90
33645;DHT22;19986;48.190;16.366;2023-04-03T06:42:26;8.40;99.90
33645;DHT22;19986;48.190;16.366;2023-04-03T06:44:52;8.30;99.90
33645;DHT22;19986;48.190;16.366;2023-04-03T06:47:18;8.30;99.90
33645;DHT22;19986;48.190;16.366;2023-04-03T06:49:44;8.20;99.90
33645;DHT22;19986;48.190;16.366;2023-04-03T06:52:10;8.20;99.90
33645;DHT22;19986;48.190;16.366;2023-04-03T06:54:38;8.10;99.90
33645;DHT22;19986;48.190;16.366;2023-04-03T06:57:04;8.20;99.90
33645;DHT22;19986;48.190;16.366;2023-04-03T06:59:30;8.10;99.90
33645;DHT22;19986;48.190;16.366;2023-04-03T07:01:56;8.10;99.90
33645;DHT22;19986;48.190;16.366;2023-04-03T07:04:24;8.10;99.90
33645;DHT22;19986;48.190;16.366;2023-04-03T07:06:50;8.10;99.90
33645;DHT22;19986;48.190;16.366;2023-04-03T07:09:16;8.20;99.90
33645;DHT22;19986;48.190;16.366;2023-04-03T07:11:42;8.30;99.90
33645;DHT22;19986;48.190;16.366;2023-04-03T07:14:08;8.30;99.90
33645;DHT22;19986;48.190;16.366;2023-04-03T07:16:35;8.20;99.90
33645;DHT22;19986;48.190;16.366;2023-04-03T07:19:01;8.20;99.90
33645;DHT22;19986;48.190;16.366;2023-04-03T07:21:28;8.20;99.90
33645;DHT22;19986;48.190;16.366;2023-04-03T07:23:54;8.30;99.90
33645;DHT22;19986;48.190;16.366;2023-04-03T07:26:21;8.20;99.90
33645;DHT22;19986;48.190;16.366;2023-04-03T07:28:48;8.10;99.90
33645;DHT22;19986;48.190;16.366;2023-04-03T07:31:16;8.20;99.90
33645;DHT22;19986;48.190;16.366;2023-04-03T07:33:43;8.50;99.90
33645;DHT22;19986;48.190;16.366;2023-04-03T07:36:10;8.70;99.80
33645;DHT22;19986;48.190;16.366;2023-04-03T07:38:37;8.70;99.60
33645;DHT22;19986;48.190;16.366;2023-04-03T07:41:03;8.90;99.60
33645;DHT22;19986;48.190;16.366;2023-04-03T07:43:30;9.30;99.20
33645;DHT22;19986;48.190;16.366;2023-04-03T07:45:55;9.40;98.80
33645;DHT22;19986;48.190;16.366;2023-04-03T07:48:24;9.50;98.60
33645;DHT22;19986;48.190;16.366;2023-04-03T07:50:51;9.60;98.30
33645;DHT22;19986;48.190;16.366;2023-04-03T07:53:18;9.70;98.20
33645;DHT22;19986;48.190;16.366;2023-04-03T07:55:47;9.60;97.70
33645;DHT22;19986;48.190;16.366;2023-04-03T07:58:17;9.50;97.90
33645;DHT22;19986;48.190;16.366;2023-04-03T08:00:44;9.30;97.90
33645;DHT22;19986;48.190;16.366;2023-04-03T08:03:11;9.10;98.20
33645;DHT22;19986;48.190;16.366;2023-04-03T08:05:39;9.00;98.40
33645;DHT22;19986;48.190;16.366;2023-04-03T08:08:06;8.80;98.50
33645;DHT22;19986;48.190;16.366;2023-04-03T08:10:32;8.70;98.20
33645;DHT22;19986;48.190;16.366;2023-04-03T08:12:59;8.70;98.60
33645;DHT22;19986;48.190;16.366;2023-04-03T08:15:25;8.70;98.70
33645;DHT22;19986;48.190;16.366;2023-04-03T08:17:53;8.70;98.50
33645;DHT22;19986;48.190;16.366;2023-04-03T08:20:19;8.50;98.60
33645;DHT22;19986;48.190;16.366;2023-04-03T08:22:45;8.50;98.80
33645;DHT22;19986;48.190;16.366;2023-04-03T08:25:26;8.50;98.60
33645;DHT22;19986;48.190;16.366;2023-04-03T08:27:55;8.40;98.40
33645;DHT22;19986;48.190;16.366;2023-04-03T08:30:21;8.50;98.30
33645;DHT22;19986;48.190;16.366;2023-04-03T08:32:47;8.50;98.10
33645;DHT22;19986;48.190;16.366;2023-04-03T08:35:13;8.40;98.30
33645;DHT22;19986;48.190;16.366;2023-04-03T08:37:39;8.50;98.70
33645;DHT22;19986;48.190;16.366;2023-04-03T08:40:10;8.70;98.60
33645;DHT22;19986;48.190;16.366;2023-04-03T08:42:51;8.90;97.90
33645;DHT22;19986;48.190;16.366;2023-04-03T08:45:26;9.00;97.70
33645;DHT22;19986;48.190;16.366;2023-04-03T08:48:04;9.00;97.30
33645;DHT22;19986;48.190;16.366;2023-04-03T08:50:40;9.20;96.70
33645;DHT22;19986;48.190;16.366;2023-04-03T08:53:26;9.40;96.20
33645;DHT22;19986;48.190;16.366;2023-04-03T08:55:55;9.30;95.50
33645;DHT22;19986;48.190;16.366;2023-04-03T08:58:33;9.30;95.90
33645;DHT22;19986;48.190;16.366;2023-04-03T09:01:05;9.50;95.70
33645;DHT22;19986;48.190;16.366;2023-04-03T09:03:36;9.90;95.70
33645;DHT22;19986;48.190;16.366;2023-04-03T09:06:23;10.00;94.70
33645;DHT22;19986;48.190;16.366;2023-04-03T09:08:53;9.70;94.50
33645;DHT22;19986;48.190;16.366;2023-04-03T09:11:42;9.50;94.00
33645;DHT22;19986;48.190;16.366;2023-04-03T09:14:30;9.30;94.60
33645;DHT22;19986;48.190;16.366;2023-04-03T09:17:04;9.50;95.00
33645;DHT22;19986;48.190;16.366;2023-04-03T09:19:44;9.50;95.20
33645;DHT22;19986;48.190;16.366;2023-04-03T09:24:43;9.60;94.20
33645;DHT22;19986;48.190;16.366;2023-04-03T09:27:11;9.50;94.60
33645;DHT22;19986;48.190;16.366;2023-04-03T09:29:43;9.70;94.30
33645;DHT22;19986;48.190;16.366;2023-04-03T09:32:30;10.00;93.60
33645;DHT22;19986;48.190;16.366;2023-04-03T09:35:03;9.90;93.70
33645;DHT22;19986;48.190;16.366;2023-04-03T09:37:39;9.70;93.90
33645;DHT22;19986;48.190;16.366;2023-04-03T09:40:11;9.50;93.50
33645;DHT22;19986;48.190;16.366;2023-04-03T09:43:08;9.70;93.50
33645;DHT22;19986;48.190;16.366;2023-04-03T09:45:46;9.90;92.90
33645;DHT22;19986;48.190;16.366;2023-04-03T09:53:44;10.00;94.10
33645;DHT22;19986;48.190;16.366;2023-04-03T09:58:47;9.60;94.30
33645;DHT22;19986;48.190;16.366;2023-04-03T10:01:36;9.60;94.10
33645;DHT22;19986;48.190;16.366;2023-04-03T10:09:32;9.50;94.30
33645;DHT22;19986;48.190;16.366;2023-04-03T10:12:05;9.50;93.60
33645;DHT22;19986;48.190;16.366;2023-04-03T10:14:37;9.40;93.30
33645;DHT22;19986;48.190;16.366;2023-04-03T10:28:05;9.50;92.90
33645;DHT22;19986;48.190;16.366;2023-04-03T10:38:46;9.20;93.10
33645;DHT22;19986;48.190;16.366;2023-04-03T10:46:52;9.30;93.50
33645;DHT22;19986;48.190;16.366;2023-04-03T10:49:30;9.30;92.50
33645;DHT22;19986;48.190;16.366;2023-04-03T10:52:13;9.40;92.60
33645;DHT22;19986;48.190;16.366;2023-04-03T10:54:54;9.50;92.00
33645;DHT22;19986;48.190;16.366;2023-04-03T10:57:24;9.40;91.60
33645;DHT22;19986;48.190;16.366;2023-04-03T11:02:31;9.60;90.80
33645;DHT22;19986;48.190;16.366;2023-04-03T11:05:06;9.60;90.60
33645;DHT22;19986;48.190;16.366;2023-04-03T11:07:39;9.70;90.70
33645;DHT22;19986;48.190;16.366;2023-04-03T11:10:23;9.80;90.80
33645;DHT22;19986;48.190;16.366;2023-04-03T11:12:57;9.90;90.80
33645;DHT22;19986;48.190;16.366;2023-04-03T11:15:24;9.80;91.00
33645;DHT22;19986;48.190;16.366;2023-04-03T11:17:58;9.40;91.60
33645;DHT22;19986;48.190;16.366;2023-04-03T11:20:31;9.40;91.80
33645;DHT22;19986;48.190;16.366;2023-04-03T11:23:08;9.10;91.60
33645;DHT22;19986;48.190;16.366;2023-04-03T11:25:40;8.90;91.70
33645;DHT22;19986;48.190;16.366;2023-04-03T11:28:13;8.80;91.90
33645;DHT22;19986;48.190;16.366;2023-04-03T11:33:37;9.00;91.80
33645;DHT22;19986;48.190;16.366;2023-04-03T11:36:12;9.30;91.70
33645;DHT22;19986;48.190;16.366;2023-04-03T11:38:46;9.70;91.60
33645;DHT22;19986;48.190;16.366;2023-04-03T11:41:27;10.40;90.50
33645;DHT22;19986;48.190;16.366;2023-04-03T11:44:01;10.40;89.80
33645;DHT22;19986;48.190;16.366;2023-04-03T11:46:49;10.20;89.70
33645;DHT22;19986;48.190;16.366;2023-04-03T12:08:47;9.60;90.30
33645;DHT22;19986;48.190;16.366;2023-04-03T12:11:25;9.40;89.40
33645;DHT22;19986;48.190;16.366;2023-04-03T12:29:23;9.20;88.70
33645;DHT22;19986;48.190;16.366;2023-04-03T12:32:13;9.20;89.00
33645;DHT22;19986;48.190;16.366;2023-04-03T12:34:46;9.30;88.30
33645;DHT22;19986;48.190;16.366;2023-04-03T12:48:21;9.20;89.00
33645;DHT22;19986;48.190;16.366;2023-04-03T12:50:49;9.20;89.20
33645;DHT22;19986;48.190;16.366;2023-04-03T12:53:19;9.30;89.80
33645;DHT22;19986;48.190;16.366;2023-04-03T12:55:46;9.30;89.00
33645;DHT22;19986;48.190;16.366;2023-04-03T12:58:21;9.30;89.10
33645;DHT22;19986;48.190;16.366;2023-04-03T13:03:35;9.40;88.80
33645;DHT22;19986;48.190;16.366;2023-04-03T13:06:04;9.50;88.30
33645;DHT22;19986;48.190;16.366;2023-04-03T13:08:30;9.50;87.90
33645;DHT22;19986;48.190;16.366;2023-04-03T13:11:04;9.50;88.30
33645;DHT22;19986;48.190;16.366;2023-04-03T13:13:31;9.50;87.60
33645;DHT22;19986;48.190;16.366;2023-04-03T13:15:57;9.50;88.20
33645;DHT22;19986;48.190;16.366;2023-04-03T13:18:33;9.60;87.80
33645;DHT22;19986;48.190;16.366;2023-04-03T13:21:06;9.60;87.20
33645;DHT22;19986;48.190;16.366;2023-04-03T13:23:36;9.50;87.30
33645;DHT22;19986;48.190;16.366;2023-04-03T13:26:05;9.60;87.20
33645;DHT22;19986;48.190;16.366;2023-04-03T13:28:32;9.80;87.80
33645;DHT22;19986;48.190;16.366;2023-04-03T13:31:14;9.90;86.00
33645;DHT22;19986;48.190;16.366;2023-04-03T13:33:53;9.90;86.10
33645;DHT22;19986;48.190;16.366;2023-04-03T13:36:45;9.80;85.90
33645;DHT22;19986;48.190;16.366;2023-04-03T13:41:47;9.90;86.30
33645;DHT22;19986;48.190;16.366;2023-04-03T13:46:48;9.70;86.40
33645;DHT22;19986;48.190;16.366;2023-04-03T13:49:23;9.70;86.90
33645;DHT22;19986;48.190;16.366;2023-04-03T13:51:54;9.70;86.70
33645;DHT22;19986;48.190;16.366;2023-04-03T13:54:24;9.60;86.90
33645;DHT22;19986;48.190;16.366;2023-04-03T13:56:55;9.60;86.50
33645;DHT22;19986;48.190;16.366;2023-04-03T13:59:28;9.50;87.50
33645;DHT22;19986;48.190;16.366;2023-04-03T14:07:03;9.40;88.10
33645;DHT22;19986;48.190;16.366;2023-04-03T14:09:29;9.50;88.10
33645;DHT22;19986;48.190;16.366;2023-04-03T14:11:59;9.30;87.80
33645;DHT22;19986;48.190;16.366;2023-04-03T14:14:32;9.30;87.70
33645;DHT22;19986;48.190;16.366;2023-04-03T14:17:01;9.10;87.70
33645;DHT22;19986;48.190;16.366;2023-04-03T14:19:31;9.00;88.70
33645;DHT22;19986;48.190;16.366;2023-04-03T14:21:59;9.00;89.10
33645;DHT22;19986;48.190;16.366;2023-04-03T14:24:26;9.00;89.00
33645;DHT22;19986;48.190;16.366;2023-04-03T14:26:54;9.00;88.30
33645;DHT22;19986;48.190;16.366;2023-04-03T14:29:21;8.90;88.60
33645;DHT22;19986;48.190;16.366;2023-04-03T14:31:48;9.00;89.00
33645;DHT22;19986;48.190;16.366;2023-04-03T14:34:16;9.00;89.10
33645;DHT22;19986;48.190;16.366;2023-04-03T14:36:44;8.90;89.20
33645;DHT22;19986;48.190;16.366;2023-04-03T14:39:17;8.90;89.90
33645;DHT22;19986;48.190;16.366;2023-04-03T14:41:44;8.80;90.10
33645;DHT22;19986;48.190;16.366;2023-04-03T14:44:10;8.80;90.20
33645;DHT22;19986;48.190;16.366;2023-04-03T14:46:39;8.90;90.30
33645;DHT22;19986;48.190;16.366;2023-04-03T14:49:15;8.80;90.20
33645;DHT22;19986;48.190;16.366;2023-04-03T14:51:41;9.00;89.30
33645;DHT22;19986;48.190;16.366;2023-04-03T14:54:18;9.00;88.90
33645;DHT22;19986;48.190;16.366;2023-04-03T14:56:44;9.00;88.50
33645;DHT22;19986;48.190;16.366;2023-04-03T14:59:13;8.90;89.30
33645;DHT22;19986;48.190;16.366;2023-04-03T15:01:40;8.90;89.20
33645;DHT22;19986;48.190;16.366;2023-04-03T15:04:15;8.80;89.50
33645;DHT22;19986;48.190;16.366;2023-04-03T15:06:42;8.90;89.60
33645;DHT22;19986;48.190;16.366;2023-04-03T15:09:20;9.10;89.60
33645;DHT22;19986;48.190;16.366;2023-04-03T15:11:47;9.10;88.20
33645;DHT22;19986;48.190;16.366;2023-04-03T15:14:13;9.00;87.30
33645;DHT22;19986;48.190;16.366;2023-04-03T15:16:39;8.90;86.60
33645;DHT22;19986;48.190;16.366;2023-04-03T15:19:05;9.00;85.70
33645;DHT22;19986;48.190;16.366;2023-04-03T15:21:31;8.90;86.00
33645;DHT22;19986;48.190;16.366;2023-04-03T15:23:57;8.90;86.50
33645;DHT22;19986;48.190;16.366;2023-04-03T15:26:23;9.00;86.90
33645;DHT22;19986;48.190;16.366;2023-04-03T15:28:49;8.90;87.00
33645;DHT22;19986;48.190;16.366;2023-04-03T15:31:15;8.80;86.90
33645;DHT22;19986;48.190;16.366;2023-04-03T15:33:41;8.90;86.90
33645;DHT22;19986;48.190;16.366;2023-04-03T15:36:08;8.90;87.40
33645;DHT22;19986;48.190;16.366;2023-04-03T15:38:34;8.90;87.10
33645;DHT22;19986;48.190;16.366;2023-04-03T15:41:01;8.90;87.40
33645;DHT22;19986;48.190;16.366;2023-04-03T15:43:26;8.80;87.80
33645;DHT22;19986;48.190;16.366;2023-04-03T15:45:56;8.60;88.10
33645;DHT22;19986;48.190;16.366;2023-04-03T15:48:22;8.50;88.20
33645;DHT22;19986;48.190;16.366;2023-04-03T15:50:48;8.50;88.50
33645;DHT22;19986;48.190;16.366;2023-04-03T15:53:14;8.50;88.80
33645;DHT22;19986;48.190;16.366;2023-04-03T15:55:40;8.50;88.50
33645;DHT22;19986;48.190;16.366;2023-04-03T15:58:07;8.40;87.90
33645;DHT22;19986;48.190;16.366;2023-04-03T16:00:33;8.50;88.40
33645;DHT22;19986;48.190;16.366;2023-04-03T16:03:05;8.60;88.50
33645;DHT22;19986;48.190;16.366;2023-04-03T16:05:32;8.70;88.40
33645;DHT22;19986;48.190;16.366;2023-04-03T16:08:00;8.60;88.40
33645;DHT22;19986;48.190;16.366;2023-04-03T16:10:26;8.60;87.80
33645;DHT22;19986;48.190;16.366;2023-04-03T16:12:52;8.50;88.10
33645;DHT22;19986;48.190;16.366;2023-04-03T16:15:18;8.40;87.90
33645;DHT22;19986;48.190;16.366;2023-04-03T16:17:44;8.30;88.30
33645;DHT22;19986;48.190;16.366;2023-04-03T16:20:11;8.30;88.70
33645;DHT22;19986;48.190;16.366;2023-04-03T16:22:39;8.30;88.80
33645;DHT22;19986;48.190;16.366;2023-04-03T16:25:07;8.20;88.60
33645;DHT22;19986;48.190;16.366;2023-04-03T16:27:33;8.10;88.70
33645;DHT22;19986;48.190;16.366;2023-04-03T16:29:59;8.10;89.10
33645;DHT22;19986;48.190;16.366;2023-04-03T16:32:28;8.10;88.90
33645;DHT22;19986;48.190;16.366;2023-04-03T16:34:55;8.10;89.10
33645;DHT22;19986;48.190;16.366;2023-04-03T16:37:21;8.10;89.60
33645;DHT22;19986;48.190;16.366;2023-04-03T16:39:47;8.10;89.30
33645;DHT22;19986;48.190;16.366;2023-04-03T16:42:13;8.10;89.70
33645;DHT22;19986;48.190;16.366;2023-04-03T16:44:39;8.10;89.30
33645;DHT22;19986;48.190;16.366;2023-04-03T16:47:06;8.10;89.60
33645;DHT22;19986;48.190;16.366;2023-04-03T16:49:33;8.10;89.30
33645;DHT22;19986;48.190;16.366;2023-04-03T16:52:00;8.00;89.70
33645;DHT22;19986;48.190;16.366;2023-04-03T16:54:27;8.00;89.40
33645;DHT22;19986;48.190;16.366;2023-04-03T16:56:53;8.00;89.40
33645;DHT22;19986;48.190;16.366;2023-04-03T16:59:18;8.00;89.30
33645;DHT22;19986;48.190;16.366;2023-04-03T17:01:44;8.10;89.50
33645;DHT22;19986;48.190;16.366;2023-04-03T17:04:10;8.10;89.30
33645;DHT22;19986;48.190;16.366;2023-04-03T17:06:36;8.00;88.70
33645;DHT22;19986;48.190;16.366;2023-04-03T17:09:02;8.00;88.20
33645;DHT22;19986;48.190;16.366;2023-04-03T17:11:29;7.90;88.30
33645;DHT22;19986;48.190;16.366;2023-04-03T17:13:55;8.00;88.60
33645;DHT22;19986;48.190;16.366;2023-04-03T17:16:22;8.00;88.30
33645;DHT22;19986;48.190;16.366;2023-04-03T17:18:48;7.90;88.10
33645;DHT22;19986;48.190;16.366;2023-04-03T17:21:15;7.90;88.40
33645;DHT22;19986;48.190;16.366;2023-04-03T17:23:45;7.70;88.80
33645;DHT22;19986;48.190;16.366;2023-04-03T17:26:12;7.70;89.20
33645;DHT22;19986;48.190;16.366;2023-04-03T17:28:38;7.70;89.40
33645;DHT22;19986;48.190;16.366;2023-04-03T17:31:05;7.70;89.50